createdAt,value
2022-11-15T00:00:50.873Z,96.74
2022-11-15T00:01:50.879Z,96.55
2022-11-15T00:02:50.866Z,96.26
2022-11-15T00:03:50.887Z,96.36
2022-11-15T00:04:50.854Z,96.55
2022-11-15T00:05:50.852Z,96.65
2022-11-15T00:06:50.900Z,96.65
2022-11-15T00:07:58.069Z,96.55
2022-11-15T00:08:50.841Z,96.55
2022-11-15T00:09:50.812Z,96.17
2022-11-15T00:10:50.806Z,96.36
2022-11-15T00:11:50.808Z,96.45
2022-11-15T00:12:50.852Z,96.55
2022-11-15T00:13:50.802Z,96.84
2022-11-15T00:14:50.790Z,96.84
2022-11-15T00:15:50.780Z,96.65
2022-11-15T00:16:50.772Z,96.74
2022-11-15T00:17:50.774Z,96.55
2022-11-15T00:18:51.142Z,96.65
2022-11-15T00:19:50.765Z,96.65
2022-11-15T00:20:50.742Z,96.65
2022-11-15T00:21:50.741Z,96.45
2022-11-15T00:22:50.739Z,96.45
2022-11-15T00:23:50.758Z,96.36
2022-11-15T00:24:50.715Z,96.84
2022-11-15T00:25:50.718Z,96.36
2022-11-15T00:26:50.705Z,96.36
2022-11-15T00:27:50.696Z,96.45
2022-11-15T00:28:50.686Z,96.55
2022-11-15T00:29:50.688Z,96.36
2022-11-15T00:30:50.697Z,96.36
2022-11-15T00:31:50.690Z,96.45
2022-11-15T00:32:50.688Z,96.36
2022-11-15T00:33:50.672Z,96.36
2022-11-15T00:34:50.645Z,96.17
2022-11-15T00:35:50.660Z,96.36
2022-11-15T00:36:50.643Z,96.45
2022-11-15T00:37:50.646Z,96.26
2022-11-15T00:38:50.627Z,96.45
2022-11-15T00:39:50.619Z,96.36
2022-11-15T00:40:50.619Z,96.17
2022-11-15T00:41:50.640Z,96.36
2022-11-15T00:42:50.605Z,96.65
2022-11-15T00:43:50.593Z,96.36
2022-11-15T00:44:50.584Z,96.45
2022-11-15T00:45:50.575Z,96.26
2022-11-15T00:46:50.592Z,96.26
2022-11-15T00:47:50.569Z,96.45
2022-11-15T00:48:50.572Z,96.55
2022-11-15T00:49:50.552Z,96.08
2022-11-15T00:50:50.568Z,96.26
2022-11-15T00:51:50.547Z,96.45
2022-11-15T00:52:50.552Z,96.08
2022-11-15T00:53:50.541Z,96.26
2022-11-15T00:54:50.517Z,96.55
2022-11-15T00:55:50.522Z,96.36
2022-11-15T00:56:50.537Z,96.55
2022-11-15T00:57:50.502Z,96.55
2022-11-15T00:58:50.487Z,96.65
2022-11-15T00:59:50.489Z,96.22
2022-11-15T01:00:50.521Z,97.12
2022-11-15T01:01:50.481Z,97.55
2022-11-15T01:02:50.469Z,97.36
2022-11-15T01:03:50.461Z,97.45
2022-11-15T01:04:50.462Z,97.27
2022-11-15T01:05:50.445Z,97.27
2022-11-15T01:06:50.480Z,97.27
2022-11-15T01:07:50.439Z,97.27
2022-11-15T01:08:50.448Z,97.17
2022-11-15T01:09:50.413Z,97.17
2022-11-15T01:10:50.422Z,96.98
2022-11-15T01:11:50.424Z,97.27
2022-11-15T01:12:50.410Z,97.27
2022-11-15T01:13:50.386Z,97.27
2022-11-15T01:14:50.378Z,97.36
2022-11-15T01:15:50.383Z,97.64
2022-11-15T01:16:50.379Z,97.45
2022-11-15T01:17:50.417Z,97.27
2022-11-15T01:18:50.371Z,96.98
2022-11-15T01:19:50.353Z,96.98
2022-11-15T01:20:50.340Z,96.98
2022-11-15T01:21:50.357Z,97.27
2022-11-15T01:22:50.333Z,97.27
2022-11-15T01:23:50.354Z,97.17
2022-11-15T01:24:50.335Z,97.27
2022-11-15T01:25:50.322Z,96.98
2022-11-15T01:26:50.319Z,96.98
2022-11-15T01:27:50.301Z,96.98
2022-11-15T01:28:50.326Z,97.27
2022-11-15T01:29:50.279Z,96.98
2022-11-15T01:30:50.287Z,96.98
2022-11-15T01:31:50.266Z,97.36
2022-11-15T01:32:50.264Z,97.12
2022-11-15T01:33:50.267Z,97.36
2022-11-15T01:34:50.268Z,97.27
2022-11-15T01:35:50.238Z,97.45
2022-11-15T01:36:50.247Z,97.27
2022-11-15T01:37:50.244Z,97.36
2022-11-15T01:38:50.232Z,97.55
2022-11-15T01:39:50.228Z,96.98
2022-11-15T01:40:50.209Z,96.88
2022-11-15T01:41:50.208Z,96.88
2022-11-15T01:42:50.235Z,96.98
2022-11-15T01:43:50.230Z,96.88
2022-11-15T01:44:50.195Z,96.12
2022-11-15T01:45:50.191Z,95.94
2022-11-15T01:46:50.174Z,97.07
2022-11-15T01:47:50.163Z,96.88
2022-11-15T01:48:50.186Z,97.36
2022-11-15T01:49:50.157Z,97.27
2022-11-15T01:50:50.149Z,97.36
2022-11-15T01:51:50.137Z,96.98
2022-11-15T01:52:50.141Z,96.98
2022-11-15T01:53:50.118Z,97.07
2022-11-15T01:54:50.124Z,97.55
2022-11-15T01:55:50.121Z,97.36
2022-11-15T01:56:50.093Z,97.27
2022-11-15T01:57:50.112Z,97.55
2022-11-15T01:58:50.083Z,96.69
2022-11-15T01:59:50.076Z,97.64
2022-11-15T02:00:50.151Z,96.98
2022-11-15T02:01:50.069Z,97.07
2022-11-15T02:02:50.062Z,97.07
2022-11-15T02:03:50.074Z,97.55
2022-11-15T02:04:50.039Z,97.55
2022-11-15T02:05:50.033Z,97.27
2022-11-15T02:06:50.102Z,97.27
2022-11-15T02:07:50.022Z,97.55
2022-11-15T02:08:50.011Z,97.55
2022-11-15T02:09:50.019Z,97.27
2022-11-15T02:10:50.025Z,97.36
2022-11-15T02:11:49.997Z,97.36
2022-11-15T02:12:49.982Z,97.45
2022-11-15T02:13:49.979Z,97.36
2022-11-15T02:14:49.975Z,97.27
2022-11-15T02:15:49.979Z,97.64
2022-11-15T02:16:49.960Z,97.27
2022-11-15T02:17:49.963Z,97.64
2022-11-15T02:18:49.947Z,97.27
2022-11-15T02:19:49.931Z,97.64
2022-11-15T02:20:49.927Z,97.45
2022-11-15T02:21:49.927Z,97.36
2022-11-15T02:22:49.921Z,97.45
2022-11-15T02:23:49.928Z,97.36
2022-11-15T02:24:49.924Z,97.45
2022-11-15T02:25:49.902Z,97.45
2022-11-15T02:26:49.886Z,97.55
2022-11-15T02:27:49.879Z,97.64
2022-11-15T02:28:49.870Z,97.55
2022-11-15T02:29:49.885Z,97.27
2022-11-15T02:30:49.876Z,97.36
2022-11-15T02:31:49.866Z,97.36
2022-11-15T02:32:49.850Z,97.07
2022-11-15T02:33:49.856Z,97.07
2022-11-15T02:34:49.832Z,97.07
2022-11-15T02:35:49.825Z,97.07
2022-11-15T02:36:49.812Z,97.36
2022-11-15T02:37:49.814Z,97.27
2022-11-15T02:38:49.814Z,97.07
2022-11-15T02:39:49.796Z,97.55
2022-11-15T02:40:49.793Z,97.36
2022-11-15T02:41:49.796Z,97.45
2022-11-15T02:42:49.779Z,97.36
2022-11-15T02:43:49.780Z,97.27
2022-11-15T02:44:49.761Z,97.55
2022-11-15T02:45:49.774Z,97.64
2022-11-15T02:46:49.766Z,97.07
2022-11-15T02:47:49.752Z,96.22
2022-11-15T02:48:49.730Z,96.98
2022-11-15T02:49:49.725Z,97.07
2022-11-15T02:50:49.719Z,96.12
2022-11-15T02:51:49.719Z,96.12
2022-11-15T02:52:49.710Z,96.12
2022-11-15T02:53:49.712Z,96.88
2022-11-15T02:54:49.691Z,96.98
2022-11-15T02:55:49.688Z,96.98
2022-11-15T02:56:49.675Z,96.88
2022-11-15T02:57:49.666Z,96.12
2022-11-15T02:58:49.662Z,96.03
2022-11-15T02:59:49.658Z,96.41
2022-11-15T03:00:49.746Z,96.50
2022-11-15T03:01:49.684Z,96.41
2022-11-15T03:02:49.672Z,96.22
2022-11-15T03:03:49.645Z,96.22
2022-11-15T03:04:49.636Z,96.98
2022-11-15T03:05:49.612Z,96.41
2022-11-15T03:06:49.645Z,96.41
2022-11-15T03:07:49.617Z,96.41
2022-11-15T03:08:49.611Z,96.03
2022-11-15T03:09:49.592Z,96.98
2022-11-15T03:10:49.581Z,96.98
2022-11-15T03:11:49.577Z,96.98
2022-11-15T03:12:49.566Z,97.27
2022-11-15T03:13:49.566Z,97.27
2022-11-15T03:14:49.570Z,97.27
2022-11-15T03:15:49.549Z,97.64
2022-11-15T03:16:49.547Z,97.45
2022-11-15T03:17:49.531Z,97.36
2022-11-15T03:18:49.523Z,97.27
2022-11-15T03:19:49.513Z,96.69
2022-11-15T03:20:49.508Z,96.69
2022-11-15T03:21:49.500Z,96.98
2022-11-15T03:22:49.500Z,96.12
2022-11-15T03:23:49.503Z,96.41
2022-11-15T03:24:49.480Z,96.31
2022-11-15T03:25:49.470Z,96.22
2022-11-15T03:26:49.463Z,96.50
2022-11-15T03:27:49.463Z,96.41
2022-11-15T03:28:49.452Z,96.98
2022-11-15T03:29:49.450Z,97.07
2022-11-15T03:30:49.447Z,96.98
2022-11-15T03:31:50.735Z,97.64
2022-11-15T03:32:49.433Z,97.55
2022-11-15T03:33:49.452Z,97.55
2022-11-15T03:34:49.414Z,97.55
2022-11-15T03:35:49.414Z,97.17
2022-11-15T03:36:49.396Z,97.55
2022-11-15T03:37:49.479Z,97.27
2022-11-15T03:38:49.380Z,97.45
2022-11-15T03:39:49.400Z,97.45
2022-11-15T03:40:49.377Z,97.45
2022-11-15T03:41:49.381Z,97.27
2022-11-15T03:42:49.361Z,97.55
2022-11-15T03:43:49.356Z,97.27
2022-11-15T03:44:49.347Z,97.36
2022-11-15T03:45:49.336Z,97.27
2022-11-15T03:46:49.334Z,97.55
2022-11-15T03:47:49.323Z,97.55
2022-11-15T03:48:49.315Z,97.64
2022-11-15T03:49:49.310Z,97.55
2022-11-15T03:50:49.324Z,97.07
2022-11-15T03:51:49.302Z,97.27
2022-11-15T03:52:49.290Z,97.36
2022-11-15T03:53:49.284Z,97.45
2022-11-15T03:54:49.283Z,97.17
2022-11-15T03:55:49.273Z,97.17
2022-11-15T03:56:49.253Z,97.36
2022-11-15T03:57:49.267Z,97.27
2022-11-15T03:58:49.263Z,97.17
2022-11-15T03:59:49.237Z,97.07
2022-11-15T04:00:49.322Z,97.27
2022-11-15T04:01:49.219Z,97.17
2022-11-15T04:02:49.226Z,97.36
2022-11-15T04:03:49.213Z,96.98
2022-11-15T04:04:49.206Z,97.64
2022-11-15T04:05:49.202Z,97.45
2022-11-15T04:06:49.238Z,97.55
2022-11-15T04:07:49.189Z,97.64
2022-11-15T04:08:49.180Z,97.64
2022-11-15T04:09:49.163Z,97.45
2022-11-15T04:10:49.185Z,97.74
2022-11-15T04:11:49.152Z,97.64
2022-11-15T04:12:49.145Z,97.45
2022-11-15T04:13:49.135Z,97.07
2022-11-15T04:14:49.150Z,97.07
2022-11-15T04:15:49.142Z,97.07
2022-11-15T04:16:49.120Z,97.27
2022-11-15T04:17:49.113Z,97.45
2022-11-15T04:18:49.109Z,97.64
2022-11-15T04:19:49.102Z,97.74
2022-11-15T04:20:49.093Z,97.45
2022-11-15T04:21:49.080Z,97.45
2022-11-15T04:22:49.077Z,97.45
2022-11-15T04:23:49.060Z,97.45
2022-11-15T04:24:49.061Z,97.45
2022-11-15T04:25:49.061Z,97.64
2022-11-15T04:26:49.046Z,97.45
2022-11-15T04:27:49.052Z,97.64
2022-11-15T04:28:49.043Z,97.45
2022-11-15T04:29:49.031Z,97.83
2022-11-15T04:30:49.023Z,97.64
2022-11-15T04:31:49.005Z,97.64
2022-11-15T04:32:49.009Z,97.55
2022-11-15T04:33:48.992Z,97.36
2022-11-15T04:34:48.994Z,96.98
2022-11-15T04:35:48.985Z,98.02
2022-11-15T04:36:48.975Z,98.02
2022-11-15T04:37:49.529Z,97.92
2022-11-15T04:38:48.962Z,97.55
2022-11-15T04:39:49.017Z,97.83
2022-11-15T04:40:48.962Z,97.83
2022-11-15T04:41:48.936Z,97.83
2022-11-15T04:42:48.946Z,97.45
2022-11-15T04:43:48.937Z,97.27
2022-11-15T04:44:48.916Z,98.02
2022-11-15T04:45:48.961Z,97.17
2022-11-15T04:46:48.903Z,97.17
2022-11-15T04:47:48.910Z,98.02
2022-11-15T04:48:48.891Z,98.02
2022-11-15T04:49:48.886Z,97.27
2022-11-15T04:50:48.886Z,96.98
2022-11-15T04:51:48.882Z,97.17
2022-11-15T04:52:48.867Z,97.17
2022-11-15T04:53:48.847Z,97.45
2022-11-15T04:54:48.844Z,97.27
2022-11-15T04:55:48.846Z,97.17
2022-11-15T04:56:48.834Z,97.36
2022-11-15T04:57:48.827Z,97.45
2022-11-15T04:58:48.808Z,97.36
2022-11-15T04:59:48.804Z,97.36
2022-11-15T05:00:48.863Z,97.45
2022-11-15T05:01:48.809Z,97.55
2022-11-15T05:02:48.800Z,97.64
2022-11-15T05:03:48.791Z,97.83
2022-11-15T05:04:48.782Z,97.64
2022-11-15T05:05:48.767Z,97.07
2022-11-15T05:06:48.815Z,97.27
2022-11-15T05:07:48.752Z,97.27
2022-11-15T05:08:48.747Z,97.07
2022-11-15T05:09:48.755Z,97.36
2022-11-15T05:10:48.741Z,96.98
2022-11-15T05:11:48.725Z,96.98
2022-11-15T05:12:48.736Z,97.27
2022-11-15T05:13:48.725Z,97.74
2022-11-15T05:14:48.716Z,97.17
2022-11-15T05:15:48.695Z,97.64
2022-11-15T05:16:48.691Z,97.45
2022-11-15T05:17:48.686Z,97.64
2022-11-15T05:18:48.724Z,97.64
2022-11-15T05:19:48.679Z,97.36
2022-11-15T05:20:48.658Z,97.17
2022-11-15T05:21:48.665Z,97.64
2022-11-15T05:22:48.644Z,97.55
2022-11-15T05:23:48.637Z,97.64
2022-11-15T05:24:48.628Z,97.17
2022-11-15T05:25:48.629Z,97.17
2022-11-15T05:26:48.625Z,97.17
2022-11-15T05:27:48.608Z,97.45
2022-11-15T05:28:48.616Z,97.55
2022-11-15T05:29:48.603Z,97.45
2022-11-15T05:30:48.600Z,97.36
2022-11-15T05:31:48.583Z,97.36
2022-11-15T05:32:48.578Z,97.17
2022-11-15T05:33:48.576Z,97.36
2022-11-15T05:34:48.599Z,97.45
2022-11-15T05:35:48.574Z,97.45
2022-11-15T05:36:48.547Z,97.45
2022-11-15T05:37:48.555Z,97.17
2022-11-15T05:38:48.536Z,97.17
2022-11-15T05:39:48.540Z,97.45
2022-11-15T05:40:48.535Z,97.17
2022-11-15T05:41:48.526Z,97.17
2022-11-15T05:42:48.538Z,97.36
2022-11-15T05:43:48.501Z,97.55
2022-11-15T05:44:48.492Z,97.17
2022-11-15T05:45:48.491Z,97.17
2022-11-15T05:46:48.480Z,97.17
2022-11-15T05:47:48.479Z,97.17
2022-11-15T05:48:48.487Z,97.36
2022-11-15T05:49:48.464Z,97.36
2022-11-15T05:50:48.520Z,97.36
2022-11-15T05:51:48.445Z,97.64
2022-11-15T05:52:48.438Z,97.64
2022-11-15T05:53:48.431Z,97.55
2022-11-15T05:54:48.433Z,96.88
2022-11-15T05:55:48.423Z,97.45
2022-11-15T05:56:48.435Z,97.45
2022-11-15T05:57:48.415Z,97.27
2022-11-15T05:58:48.415Z,97.64
2022-11-15T05:59:48.392Z,97.27
2022-11-15T06:00:48.421Z,97.36
2022-11-15T06:01:48.405Z,97.27
2022-11-15T06:02:48.378Z,97.27
2022-11-15T06:03:48.368Z,97.07
2022-11-15T06:04:48.366Z,97.45
2022-11-15T06:05:48.363Z,97.36
2022-11-15T06:06:48.366Z,97.36
2022-11-15T06:07:48.347Z,97.36
2022-11-15T06:08:48.341Z,97.27
2022-11-15T06:09:48.322Z,97.36
2022-11-15T06:10:48.321Z,96.98
2022-11-15T06:11:48.331Z,97.36
2022-11-15T06:12:48.289Z,97.64
2022-11-15T06:13:48.291Z,97.17
2022-11-15T06:14:48.285Z,97.55
2022-11-15T06:15:48.278Z,97.36
2022-11-15T06:16:48.274Z,97.27
2022-11-15T06:17:48.283Z,97.74
2022-11-15T06:18:48.251Z,97.45
2022-11-15T06:19:48.308Z,97.45
2022-11-15T06:20:48.240Z,97.45
2022-11-15T06:21:48.233Z,97.27
2022-11-15T06:22:48.245Z,97.07
2022-11-15T06:23:48.228Z,97.27
2022-11-15T06:24:48.207Z,96.98
2022-11-15T06:25:48.232Z,97.27
2022-11-15T06:26:48.223Z,97.27
2022-11-15T06:27:48.218Z,97.27
2022-11-15T06:28:48.186Z,97.27
2022-11-15T06:29:48.186Z,97.17
2022-11-15T06:30:53.036Z,97.27
2022-11-15T06:31:48.260Z,97.27
2022-11-15T06:32:48.177Z,97.36
2022-11-15T06:33:48.187Z,97.27
2022-11-15T06:34:48.143Z,97.36
2022-11-15T06:35:48.141Z,97.27
2022-11-15T06:36:48.133Z,97.07
2022-11-15T06:37:48.127Z,97.36
2022-11-15T06:38:48.140Z,97.36
2022-11-15T06:39:48.115Z,97.27
2022-11-15T06:40:48.157Z,97.17
2022-11-15T06:41:48.105Z,97.27
2022-11-15T06:42:48.102Z,97.27
2022-11-15T06:43:48.078Z,97.27
2022-11-15T06:44:48.172Z,97.27
2022-11-15T06:45:48.066Z,97.07
2022-11-15T06:46:48.083Z,97.27
2022-11-15T06:47:48.081Z,97.27
2022-11-15T06:48:48.043Z,97.36
2022-11-15T06:49:48.039Z,97.27
2022-11-15T06:50:48.075Z,97.07
2022-11-15T06:51:48.024Z,97.27
2022-11-15T06:52:48.023Z,97.27
2022-11-15T06:53:48.013Z,97.64
2022-11-15T06:54:48.015Z,97.27
2022-11-15T06:55:52.050Z,97.27
2022-11-15T06:56:47.983Z,96.98
2022-11-15T06:57:47.982Z,97.07
2022-11-15T06:58:47.967Z,97.07
2022-11-15T06:59:47.964Z,97.27
2022-11-15T07:00:47.993Z,97.36
2022-11-15T07:01:47.983Z,97.27
2022-11-15T07:02:47.955Z,97.36
2022-11-15T07:03:47.944Z,97.36
2022-11-15T07:04:47.940Z,97.27
2022-11-15T07:05:47.943Z,97.27
2022-11-15T07:06:47.965Z,97.27
2022-11-15T07:07:47.912Z,97.27
2022-11-15T07:08:47.900Z,97.27
2022-11-15T07:09:47.904Z,97.27
2022-11-15T07:10:47.896Z,97.07
2022-11-15T07:11:47.880Z,97.07
2022-11-15T07:12:47.871Z,97.27
2022-11-15T07:13:47.878Z,97.27
2022-11-15T07:14:47.875Z,97.07
2022-11-15T07:15:47.872Z,97.17
2022-11-15T07:16:47.848Z,97.27
2022-11-15T07:17:47.837Z,97.45
2022-11-15T07:18:47.826Z,97.27
2022-11-15T07:19:47.823Z,97.74
2022-11-15T07:20:47.831Z,97.64
2022-11-15T07:21:47.834Z,97.17
2022-11-15T07:22:47.818Z,97.17
2022-11-15T07:23:47.811Z,97.27
2022-11-15T07:24:47.801Z,97.36
2022-11-15T07:25:47.798Z,97.36
2022-11-15T07:26:47.853Z,97.45
2022-11-15T07:27:47.780Z,97.36
2022-11-15T07:28:47.778Z,97.17
2022-11-15T07:29:47.762Z,97.17
2022-11-15T07:30:47.758Z,97.74
2022-11-15T07:31:47.758Z,97.64
2022-11-15T07:32:47.745Z,97.45
2022-11-15T07:33:47.729Z,97.07
2022-11-15T07:34:47.725Z,97.64
2022-11-15T07:35:47.727Z,97.45
2022-11-15T07:36:47.721Z,97.64
2022-11-15T07:37:47.707Z,97.64
2022-11-15T07:38:47.691Z,97.64
2022-11-15T07:39:47.707Z,97.17
2022-11-15T07:40:47.686Z,97.17
2022-11-15T07:41:47.678Z,97.45
2022-11-15T07:42:47.745Z,97.27
2022-11-15T07:43:47.668Z,97.17
2022-11-15T07:44:47.675Z,96.98
2022-11-15T07:45:47.675Z,97.17
2022-11-15T07:46:47.647Z,98.02
2022-11-15T07:47:47.644Z,98.02
2022-11-15T07:48:47.626Z,98.02
2022-11-15T07:49:47.623Z,97.45
2022-11-15T07:50:47.628Z,97.50
2022-11-15T07:51:47.617Z,97.50
2022-11-15T07:52:47.624Z,97.83
2022-11-15T07:53:47.623Z,97.17
2022-11-15T07:54:47.590Z,97.07
2022-11-15T07:55:47.595Z,97.31
2022-11-15T07:56:47.572Z,97.50
2022-11-15T07:57:47.592Z,97.69
2022-11-15T07:58:47.588Z,97.22
2022-11-15T07:59:47.591Z,97.69
2022-11-15T08:00:47.559Z,97.50
2022-11-15T08:01:47.666Z,97.69
2022-11-15T08:02:47.676Z,97.41
2022-11-15T08:03:47.536Z,97.69
2022-11-15T08:04:47.539Z,97.50
2022-11-15T08:05:47.525Z,97.41
2022-11-15T08:06:47.567Z,97.50
2022-11-15T08:07:47.533Z,97.50
2022-11-15T08:08:47.514Z,97.22
2022-11-15T08:09:47.493Z,97.41
2022-11-15T08:10:47.491Z,97.22
2022-11-15T08:11:47.492Z,97.31
2022-11-15T08:12:47.515Z,97.31
2022-11-15T08:13:47.469Z,97.22
2022-11-15T08:14:47.509Z,97.41
2022-11-15T08:15:47.457Z,97.97
2022-11-15T08:16:47.453Z,97.83
2022-11-15T08:17:47.456Z,98.41
2022-11-15T08:18:47.450Z,98.22
2022-11-15T08:19:47.436Z,97.64
2022-11-15T08:20:47.427Z,97.45
2022-11-15T08:21:47.435Z,97.45
2022-11-15T08:22:47.428Z,96.69
2022-11-15T08:23:47.418Z,96.94
2022-11-15T08:24:47.412Z,96.65
2022-11-15T08:25:47.398Z,96.26
2022-11-15T08:26:47.477Z,96.36
2022-11-15T08:27:47.392Z,96.08
2022-11-15T08:28:47.389Z,96.36
2022-11-15T08:29:47.378Z,95.89
2022-11-15T08:30:47.390Z,95.03
2022-11-15T08:31:47.389Z,95.41
2022-11-15T08:32:47.369Z,95.51
2022-11-15T08:33:47.359Z,95.75
2022-11-15T08:34:47.355Z,95.08
2022-11-15T08:35:47.365Z,94.51
2022-11-15T08:36:47.353Z,94.60
2022-11-15T08:37:47.369Z,94.79
2022-11-15T08:38:47.348Z,94.32
2022-11-15T08:39:47.349Z,94.65
2022-11-15T08:40:47.346Z,93.60
2022-11-15T08:41:47.337Z,94.46
2022-11-15T08:42:47.342Z,93.89
2022-11-15T08:43:47.327Z,92.94
2022-11-15T08:44:47.318Z,92.65
2022-11-15T08:45:47.308Z,92.18
2022-11-15T08:46:47.319Z,91.89
2022-11-15T08:47:52.762Z,92.65
2022-11-15T08:48:47.312Z,91.79
2022-11-15T08:49:47.295Z,92.13
2022-11-15T08:50:47.293Z,91.94
2022-11-15T08:51:47.302Z,91.65
2022-11-15T08:52:47.304Z,90.98
2022-11-15T08:53:47.304Z,90.98
2022-11-15T08:54:47.290Z,91.08
2022-11-15T08:55:47.276Z,90.89
2022-11-15T08:56:47.275Z,91.13
2022-11-15T08:57:47.286Z,91.41
2022-11-15T08:58:47.277Z,91.13
2022-11-15T08:59:47.275Z,90.50
2022-11-15T09:00:47.287Z,90.50
2022-11-15T09:01:47.310Z,89.17
2022-11-15T09:02:47.284Z,86.73
2022-11-15T09:03:47.263Z,85.30
2022-11-15T09:04:47.263Z,83.11
2022-11-15T09:05:47.259Z,82.53
2022-11-15T09:06:47.314Z,81.96
2022-11-15T09:07:47.253Z,81.77
2022-11-15T09:08:48.379Z,81.20
2022-11-15T09:09:47.255Z,80.91
2022-11-15T09:10:47.269Z,80.87
2022-11-15T09:11:47.753Z,81.25
2022-11-15T09:12:47.288Z,81.82
2022-11-15T09:13:47.264Z,82.30
2022-11-15T09:14:47.248Z,82.97
2022-11-15T09:15:47.281Z,83.83
2022-11-15T09:16:47.277Z,84.78
2022-11-15T09:17:47.252Z,83.83
2022-11-15T09:18:47.257Z,84.01
2022-11-15T09:19:47.244Z,84.88
2022-11-15T09:20:47.239Z,84.83
2022-11-15T09:21:47.246Z,84.92
2022-11-15T09:22:47.242Z,85.41
2022-11-15T09:23:47.243Z,85.60
2022-11-15T09:24:47.231Z,86.26
2022-11-15T09:25:47.243Z,85.97
2022-11-15T09:26:47.241Z,86.45
2022-11-15T09:27:47.224Z,86.45
2022-11-15T09:28:47.238Z,86.45
2022-11-15T09:29:47.273Z,87.02
2022-11-15T09:30:47.213Z,87.40
2022-11-15T09:31:47.211Z,86.83
2022-11-15T09:32:47.210Z,88.07
2022-11-15T09:33:47.212Z,87.98
2022-11-15T09:34:47.220Z,88.26
2022-11-15T09:35:47.218Z,88.45
2022-11-15T09:36:47.207Z,88.64
2022-11-15T09:37:49.116Z,88.55
2022-11-15T09:38:47.203Z,88.36
2022-11-15T09:39:47.212Z,88.74
2022-11-15T09:40:47.196Z,88.74
2022-11-15T09:41:47.207Z,89.03
2022-11-15T09:42:47.194Z,89.03
2022-11-15T09:43:47.193Z,88.74
2022-11-15T09:44:47.192Z,88.45
2022-11-15T09:45:47.191Z,88.64
2022-11-15T09:46:47.446Z,88.64
2022-11-15T09:47:47.186Z,88.17
2022-11-15T09:48:47.188Z,88.07
2022-11-15T09:49:47.207Z,88.45
2022-11-15T09:50:47.191Z,87.98
2022-11-15T09:51:47.182Z,87.88
2022-11-15T09:52:47.163Z,88.26
2022-11-15T09:54:30.443Z,88.45
2022-11-15T09:54:55.722Z,88.26
2022-11-15T09:55:47.183Z,88.64
2022-11-15T09:56:47.167Z,88.26
2022-11-15T09:57:47.167Z,88.45
2022-11-15T09:58:47.149Z,87.88
2022-11-15T09:59:47.170Z,88.17
2022-11-15T10:00:48.353Z,88.07
2022-11-15T10:01:47.207Z,87.88
2022-11-15T10:02:47.134Z,88.17
2022-11-15T10:03:47.135Z,87.88
2022-11-15T10:04:47.127Z,88.07
2022-11-15T10:05:47.127Z,88.64
2022-11-15T10:06:47.196Z,88.64
2022-11-15T10:07:47.127Z,88.55
2022-11-15T10:08:47.150Z,89.03
2022-11-15T10:09:47.118Z,89.03
2022-11-15T10:10:47.127Z,88.89
2022-11-15T10:11:47.094Z,89.12
2022-11-15T10:12:47.123Z,89.31
2022-11-15T10:13:47.092Z,89.22
2022-11-15T10:14:51.606Z,89.31
2022-11-15T10:15:47.106Z,90.08
2022-11-15T10:16:47.080Z,89.79
2022-11-15T10:17:47.085Z,89.98
2022-11-15T10:18:47.079Z,89.89
2022-11-15T10:19:47.096Z,89.84
2022-11-15T10:20:47.094Z,89.94
2022-11-15T10:21:47.068Z,89.55
2022-11-15T10:22:47.067Z,90.45
2022-11-15T10:23:47.064Z,90.26
2022-11-15T10:24:47.076Z,90.17
2022-11-15T10:25:47.058Z,90.22
2022-11-15T10:26:47.052Z,90.26
2022-11-15T10:27:47.073Z,90.31
2022-11-15T10:28:47.045Z,90.31
2022-11-15T10:29:47.062Z,90.36
2022-11-15T10:30:47.033Z,90.26
2022-11-15T10:31:47.076Z,90.36
2022-11-15T10:32:47.020Z,90.17
2022-11-15T10:33:47.022Z,90.26
2022-11-15T10:34:47.015Z,90.93
2022-11-15T10:35:47.026Z,90.26
2022-11-15T10:36:50.291Z,90.74
2022-11-15T10:37:47.018Z,90.26
2022-11-15T10:38:47.017Z,90.84
2022-11-15T10:39:47.020Z,91.13
2022-11-15T10:40:46.986Z,90.74
2022-11-15T10:41:47.001Z,90.84
2022-11-15T10:42:46.982Z,90.84
2022-11-15T10:43:46.986Z,91.03
2022-11-15T10:44:46.983Z,90.84
2022-11-15T10:45:46.982Z,91.13
2022-11-15T10:46:47.868Z,91.03
2022-11-15T10:47:46.974Z,90.84
2022-11-15T10:48:46.971Z,90.45
2022-11-15T10:49:46.946Z,90.84
2022-11-15T10:50:46.942Z,90.84
2022-11-15T10:51:46.969Z,91.13
2022-11-15T10:52:46.960Z,90.93
2022-11-15T10:53:46.933Z,91.03
2022-11-15T10:54:46.946Z,90.84
2022-11-15T10:55:46.927Z,90.84
2022-11-15T10:56:46.928Z,90.84
2022-11-15T10:57:46.917Z,90.36
2022-11-15T10:58:46.912Z,90.26
2022-11-15T10:59:46.923Z,90.17
2022-11-15T11:00:46.914Z,90.45
2022-11-15T11:01:47.002Z,90.17
2022-11-15T11:02:46.911Z,90.26
2022-11-15T11:03:46.896Z,89.98
2022-11-15T11:04:46.893Z,90.26
2022-11-15T11:05:46.892Z,90.26
2022-11-15T11:06:46.985Z,90.26
2022-11-15T11:07:46.899Z,90.45
2022-11-15T11:08:46.919Z,90.36
2022-11-15T11:09:46.870Z,90.17
2022-11-15T11:10:51.888Z,90.45
2022-11-15T11:11:46.875Z,90.26
2022-11-15T11:12:46.874Z,90.45
2022-11-15T11:13:46.898Z,90.17
2022-11-15T11:14:46.879Z,90.36
2022-11-15T11:15:46.859Z,90.36
2022-11-15T11:16:46.846Z,90.17
2022-11-15T11:17:46.833Z,90.17
2022-11-15T11:18:46.828Z,90.17
2022-11-15T11:19:46.834Z,90.64
2022-11-15T11:20:46.824Z,90.45
2022-11-15T11:21:46.847Z,90.55
2022-11-15T11:22:46.825Z,90.36
2022-11-15T11:23:46.811Z,89.89
2022-11-15T11:24:46.809Z,90.41
2022-11-15T11:25:46.800Z,90.41
2022-11-15T11:26:46.801Z,90.36
2022-11-15T11:27:46.816Z,90.45
2022-11-15T11:28:46.796Z,90.59
2022-11-15T11:29:46.778Z,90.41
2022-11-15T11:30:46.786Z,90.69
2022-11-15T11:31:46.796Z,90.31
2022-11-15T11:32:48.487Z,90.59
2022-11-15T11:33:46.780Z,90.41
2022-11-15T11:34:46.774Z,90.59
2022-11-15T11:35:46.808Z,89.74
2022-11-15T11:36:46.780Z,90.69
2022-11-15T11:37:46.749Z,90.50
2022-11-15T11:38:46.751Z,90.12
2022-11-15T11:39:46.744Z,90.41
2022-11-15T11:40:46.761Z,90.59
2022-11-15T11:41:46.757Z,90.22
2022-11-15T11:42:46.742Z,90.41
2022-11-15T11:43:46.751Z,90.41
2022-11-15T11:44:46.734Z,90.22
2022-11-15T11:45:47.538Z,90.12
2022-11-15T11:46:46.732Z,90.59
2022-11-15T11:47:46.713Z,90.41
2022-11-15T11:48:46.719Z,89.83
2022-11-15T11:49:46.726Z,89.93
2022-11-15T11:50:46.714Z,90.59
2022-11-15T11:51:46.832Z,90.50
2022-11-15T11:52:46.720Z,90.03
2022-11-15T11:53:46.753Z,89.74
2022-11-15T11:54:46.688Z,90.03
2022-11-15T11:55:46.693Z,89.83
2022-11-15T11:56:46.703Z,90.12
2022-11-15T11:57:46.679Z,90.03
2022-11-15T11:58:46.690Z,89.45
2022-11-15T11:59:46.687Z,89.45
2022-11-15T12:00:46.684Z,88.98
2022-11-15T12:01:46.885Z,89.54
2022-11-15T12:02:46.881Z,89.31
2022-11-15T12:03:46.654Z,89.02
2022-11-15T12:04:46.682Z,89.07
2022-11-15T12:05:46.654Z,89.02
2022-11-15T12:06:46.698Z,89.21
2022-11-15T12:07:46.643Z,89.36
2022-11-15T12:08:46.644Z,89.31
2022-11-15T12:09:46.655Z,89.26
2022-11-15T12:10:46.633Z,89.26
2022-11-15T12:11:46.644Z,89.54
2022-11-15T12:12:46.628Z,89.50
2022-11-15T12:13:46.657Z,89.31
2022-11-15T12:14:46.617Z,89.21
2022-11-15T12:15:46.619Z,89.40
2022-11-15T12:16:46.616Z,89.12
2022-11-15T12:17:46.605Z,89.31
2022-11-15T12:18:46.602Z,89.31
2022-11-15T12:19:46.602Z,89.21
2022-11-15T12:20:46.614Z,89.21
2022-11-15T12:21:46.620Z,89.50
2022-11-15T12:22:46.595Z,89.31
2022-11-15T12:23:46.624Z,89.12
2022-11-15T12:24:46.578Z,89.50
2022-11-15T12:25:46.579Z,89.31
2022-11-15T12:26:46.581Z,89.31
2022-11-15T12:27:46.569Z,89.31
2022-11-15T12:29:05.788Z,89.31
2022-11-15T12:29:46.590Z,89.40
2022-11-15T12:30:46.582Z,89.21
2022-11-15T12:31:46.564Z,89.50
2022-11-15T12:32:46.589Z,89.59
2022-11-15T12:33:46.550Z,89.31
2022-11-15T12:34:46.564Z,89.40
2022-11-15T12:35:46.548Z,89.12
2022-11-15T12:36:46.543Z,89.21
2022-11-15T12:37:46.539Z,89.31
2022-11-15T12:38:46.545Z,89.12
2022-11-15T12:39:46.537Z,89.31
2022-11-15T12:40:46.532Z,89.50
2022-11-15T12:41:46.560Z,89.21
2022-11-15T12:42:46.557Z,89.31
2022-11-15T12:43:46.530Z,89.40
2022-11-15T12:44:46.515Z,89.12
2022-11-15T12:45:46.517Z,89.31
2022-11-15T12:46:46.517Z,89.31
2022-11-15T12:47:46.512Z,89.31
2022-11-15T12:48:46.507Z,89.31
2022-11-15T12:49:46.532Z,89.31
2022-11-15T12:50:46.502Z,89.59
2022-11-15T12:51:46.536Z,89.31
2022-11-15T12:52:46.518Z,89.40